Time;durP1;ratioP1;P1;durP2;ratioP2;P2;SDS_P1;SDS_P2;PMS_P1;PMS_P2;Temp;Humidity;BMP_temperature;BMP_pressure;BME280_temperature;BME280_humidity;BME280_pressure;Samples;Min_cycle;Max_cycle;Signal;HPM_P1;HPM_P2
2022/07/20 00:01:35;;;;;;;6.13;3.03;;;;;;;;;;5093895;28;20024;-76
2022/07/20 00:04:01;;;;;;;7.05;2.90;;;;;;;;;;5093845;28;20031;-76
2022/07/20 00:06:27;;;;;;;8.02;2.80;;;;;;;;;;5093802;28;20032;-76
2022/07/20 00:11:37;;;;;;;9.07;2.95;;;;;;;;;;5093674;28;20077;-76
2022/07/20 00:14:04;;;;;;;4.80;2.63;;;;;;;;;;5093721;28;20050;-76
2022/07/20 00:16:31;;;;;;;4.90;2.78;;;;;;;;;;5093359;28;20471;-76
2022/07/20 00:18:57;;;;;;;10.85;2.92;;;;;;;;;;5110090;28;20090;-76
2022/07/20 00:21:24;;;;;;;6.00;2.72;;;;;;;;;;5113868;28;20035;-76
2022/07/20 00:23:50;;;;;;;9.13;2.70;;;;;;;;;;5113850;28;20097;-76
2022/07/20 00:26:16;;;;;;;8.40;3.38;;;;;;;;;;5113653;28;20071;-76
2022/07/20 00:28:42;;;;;;;7.63;2.80;;;;;;;;;;5113478;28;20118;-76
2022/07/20 00:31:09;;;;;;;12.38;2.80;;;;;;;;;;5113479;28;20019;-76
2022/07/20 00:33:35;;;;;;;8.07;3.00;;;;;;;;;;5113778;28;20028;-76
2022/07/20 00:36:01;;;;;;;11.00;2.85;;;;;;;;;;5113254;28;20459;-76
2022/07/20 00:38:27;;;;;;;9.80;3.30;;;;;;;;;;5113549;28;20750;-76
2022/07/20 00:40:53;;;;;;;11.30;3.25;;;;;;;;;;5113323;28;20422;-76
2022/07/20 00:43:19;;;;;;;10.70;3.10;;;;;;;;;;5113351;28;20111;-76
2022/07/20 00:45:46;;;;;;;5.55;3.00;;;;;;;;;;5104444;28;20103;-76
2022/07/20 00:48:12;;;;;;;4.47;3.20;;;;;;;;;;5092969;28;20028;-76
2022/07/20 00:50:38;;;;;;;10.05;3.55;;;;;;;;;;5093043;28;20024;-76
2022/07/20 00:53:04;;;;;;;5.07;2.85;;;;;;;;;;5092978;28;20093;-76
2022/07/20 00:55:30;;;;;;;4.75;3.10;;;;;;;;;;5092760;28;20028;-76
2022/07/20 00:57:56;;;;;;;7.38;3.42;;;;;;;;;;5092876;28;20039;-76
2022/07/20 01:00:22;;;;;;;12.82;3.17;;;;;;;;;;5092693;28;20394;-76
2022/07/20 01:02:48;;;;;;;8.63;2.80;;;;;;;;;;5092665;28;20090;-76
2022/07/20 01:05:14;;;;;;;4.70;2.92;;;;;;;;;;5092504;28;20174;-76
2022/07/20 01:07:44;;;;;;;5.45;2.90;;;;;;;;;;5091589;28;20024;-76
2022/07/20 01:10:11;;;;;;;10.35;3.35;;;;;;;;;;5092501;28;20032;-76
2022/07/20 01:12:43;;;;;;;9.85;3.05;;;;;;;;;;5092524;28;20039;-76
2022/07/20 01:15:09;;;;;;;9.98;3.33;;;;;;;;;;5092392;28;20024;-76
2022/07/20 01:17:36;;;;;;;8.65;3.15;;;;;;;;;;5092497;28;20016;-76
2022/07/20 01:20:02;;;;;;;5.40;2.90;;;;;;;;;;5092326;28;20419;-76
2022/07/20 01:22:28;;;;;;;4.43;2.75;;;;;;;;;;5074098;28;20035;-76
2022/07/20 01:24:54;;;;;;;5.00;2.70;;;;;;;;;;5092410;28;20024;-76
2022/07/20 01:27:20;;;;;;;7.30;3.20;;;;;;;;;;5099134;28;20069;-77
2022/07/20 01:29:46;;;;;;;5.05;2.85;;;;;;;;;;5093984;28;20792;-76
2022/07/20 01:32:12;;;;;;;10.45;2.92;;;;;;;;;;5112560;28;20047;-76
2022/07/20 01:34:38;;;;;;;18.27;3.25;;;;;;;;;;5094055;28;20098;-77
2022/07/20 01:37:04;;;;;;;7.97;3.33;;;;;;;;;;5112366;28;20382;-76
2022/07/20 01:39:30;;;;;;;6.70;3.08;;;;;;;;;;5112354;28;20028;-76
2022/07/20 01:41:56;;;;;;;4.90;3.22;;;;;;;;;;5112428;28;20063;-76
2022/07/20 01:44:23;;;;;;;7.82;2.92;;;;;;;;;;5112532;28;20080;-77
2022/07/20 01:46:49;;;;;;;6.20;3.00;;;;;;;;;;5094597;28;20490;-76
2022/07/20 01:49:16;;;;;;;7.60;2.95;;;;;;;;;;5092014;28;20028;-76
2022/07/20 01:51:42;;;;;;;6.05;3.08;;;;;;;;;;5091791;28;20505;-76
2022/07/20 01:54:08;;;;;;;8.27;3.30;;;;;;;;;;5092004;28;20127;-76
2022/07/20 01:56:34;;;;;;;7.22;3.22;;;;;;;;;;5091955;28;20028;-77
2022/07/20 01:59:00;;;;;;;4.32;3.17;;;;;;;;;;5092006;28;20035;-76
2022/07/20 02:01:26;;;;;;;5.10;2.92;;;;;;;;;;5091784;28;20024;-76
2022/07/20 02:03:52;;;;;;;6.95;2.95;;;;;;;;;;5091934;28;20332;-76
2022/07/20 02:06:18;;;;;;;7.50;3.50;;;;;;;;;;5091685;28;20055;-76
2022/07/20 02:08:45;;;;;;;9.82;3.55;;;;;;;;;;5092068;28;20020;-76
2022/07/20 02:11:11;;;;;;;11.10;4.15;;;;;;;;;;5091861;28;20028;-77
2022/07/20 02:13:37;;;;;;;8.45;3.20;;;;;;;;;;5091942;28;20137;-76
2022/07/20 02:16:16;;;;;;;9.65;3.55;;;;;;;;;;5091792;28;20432;-76
2022/07/20 02:18:46;;;;;;;8.23;3.63;;;;;;;;;;5093431;28;20115;-76
2022/07/20 02:21:12;;;;;;;6.25;3.20;;;;;;;;;;5095695;28;20024;-76
2022/07/20 02:23:39;;;;;;;6.10;3.15;;;;;;;;;;5095788;28;20032;-76
2022/07/20 02:26:05;;;;;;;8.35;3.38;;;;;;;;;;5095715;28;20489;-76
2022/07/20 02:28:31;;;;;;;5.80;2.90;;;;;;;;;;5112400;28;20123;-77
2022/07/20 02:30:57;;;;;;;12.68;3.53;;;;;;;;;;5115930;28;20043;-76
2022/07/20 02:33:24;;;;;;;6.63;3.47;;;;;;;;;;5116054;28;20438;-76
2022/07/20 02:35:50;;;;;;;10.60;3.60;;;;;;;;;;5115812;28;20023;-76
2022/07/20 02:38:16;;;;;;;8.55;3.30;;;;;;;;;;5116146;28;20027;-76
2022/07/20 02:40:42;;;;;;;7.53;4.13;;;;;;;;;;5115669;28;20024;-76
2022/07/20 02:43:08;;;;;;;8.90;3.88;;;;;;;;;;5115788;28;20019;-76
2022/07/20 02:45:34;;;;;;;11.82;3.38;;;;;;;;;;5108390;28;20070;-76
2022/07/20 02:48:03;;;;;;;10.00;3.90;;;;;;;;;;5095347;28;20036;-76
2022/07/20 02:50:30;;;;;;;17.00;4.60;;;;;;;;;;5095534;28;20032;-76
2022/07/20 02:52:56;;;;;;;11.27;3.50;;;;;;;;;;5095325;28;20032;-76
2022/07/20 02:55:22;;;;;;;9.32;3.67;;;;;;;;;;5095146;28;20019;-76
2022/07/20 02:57:48;;;;;;;9.38;3.88;;;;;;;;;;5095251;28;20062;-76
2022/07/20 03:00:17;;;;;;;10.02;3.45;;;;;;;;;;5094879;28;20032;-76
2022/07/20 03:02:43;;;;;;;8.82;3.15;;;;;;;;;;5095107;28;20374;-76
2022/07/20 03:05:09;;;;;;;7.88;3.60;;;;;;;;;;5094934;28;20024;-76
2022/07/20 03:07:35;;;;;;;13.32;3.80;;;;;;;;;;5094939;28;20074;-76
2022/07/20 03:10:02;;;;;;;90.40;6.53;;;;;;;;;;5094873;28;20043;-76
2022/07/20 03:12:28;;;;;;;78.15;5.70;;;;;;;;;;5094812;28;20036;-77
2022/07/20 03:14:57;;;;;;;41.25;4.50;;;;;;;;;;5094716;28;20028;-76
2022/07/20 03:17:23;;;;;;;18.70;4.00;;;;;;;;;;5097901;28;20019;-76
2022/07/20 03:19:49;;;;;;;22.65;3.58;;;;;;;;;;5114768;28;20045;-76
2022/07/20 03:22:15;;;;;;;15.32;3.75;;;;;;;;;;5115105;28;20031;-76
2022/07/20 03:24:41;;;;;;;11.38;4.05;;;;;;;;;;5115064;28;20020;-76
2022/07/20 03:27:07;;;;;;;25.27;4.55;;;;;;;;;;5114878;28;20020;-77
2022/07/20 03:29:33;;;;;;;14.00;4.00;;;;;;;;;;5114073;28;20039;-76
2022/07/20 03:31:59;;;;;;;10.52;4.32;;;;;;;;;;5114628;28;20027;-76
2022/07/20 03:34:25;;;;;;;9.35;3.92;;;;;;;;;;5114898;28;20048;-76
2022/07/20 03:36:51;;;;;;;13.27;4.88;;;;;;;;;;5114790;28;20031;-77
2022/07/20 03:39:17;;;;;;;8.98;4.32;;;;;;;;;;5114830;28;20034;-76
2022/07/20 03:41:43;;;;;;;16.30;5.35;;;;;;;;;;5114668;28;20028;-76
2022/07/20 03:44:09;;;;;;;8.98;4.45;;;;;;;;;;5114704;28;20518;-76
2022/07/20 03:46:36;;;;;;;12.25;5.00;;;;;;;;;;5098377;28;20048;-76
2022/07/20 03:49:02;;;;;;;10.30;4.40;;;;;;;;;;5094297;28;20043;-76
2022/07/20 03:51:28;;;;;;;18.50;5.43;;;;;;;;;;5093969;28;20032;-76
2022/07/20 03:53:54;;;;;;;9.00;4.47;;;;;;;;;;5094147;28;20036;-76
2022/07/20 03:56:23;;;;;;;8.75;4.43;;;;;;;;;;5093999;28;20048;-76
2022/07/20 03:58:49;;;;;;;13.63;4.35;;;;;;;;;;5093890;28;20032;-76
2022/07/20 04:01:15;;;;;;;12.30;4.53;;;;;;;;;;5093737;28;20027;-77
2022/07/20 04:03:41;;;;;;;9.05;4.05;;;;;;;;;;5093826;28;20024;-76
2022/07/20 04:06:07;;;;;;;14.43;4.78;;;;;;;;;;5093482;28;20036;-76
2022/07/20 04:08:33;;;;;;;12.77;5.07;;;;;;;;;;5093854;28;20123;-76
2022/07/20 04:10:59;;;;;;;11.95;5.43;;;;;;;;;;5093669;28;20031;-76
2022/07/20 04:13:25;;;;;;;20.80;8.35;;;;;;;;;;5093772;28;20028;-76
2022/07/20 04:15:51;;;;;;;19.45;8.15;;;;;;;;;;5093633;28;20358;-77
2022/07/20 04:18:17;;;;;;;27.30;8.52;;;;;;;;;;5093285;28;20031;-76
2022/07/20 04:20:43;;;;;;;25.48;10.02;;;;;;;;;;5093325;28;20028;-77
2022/07/20 04:23:11;;;;;;;21.77;8.77;;;;;;;;;;5093595;28;20511;-77
2022/07/20 04:25:37;;;;;;;25.45;11.38;;;;;;;;;;5093286;28;20048;-77
2022/07/20 04:28:03;;;;;;;27.33;11.48;;;;;;;;;;5105968;28;20397;-77
2022/07/20 04:30:31;;;;;;;24.40;11.90;;;;;;;;;;5113549;28;20452;-77
2022/07/20 04:32:58;;;;;;;31.27;12.93;;;;;;;;;;5113806;28;20019;-77
2022/07/20 04:35:24;;;;;;;34.38;13.95;;;;;;;;;;5113612;28;20035;-77
2022/07/20 04:37:50;;;;;;;31.20;16.42;;;;;;;;;;5094639;28;20036;-77
2022/07/20 04:40:16;;;;;;;36.63;17.10;;;;;;;;;;5113475;28;20030;-76
2022/07/20 04:42:42;;;;;;;37.30;16.38;;;;;;;;;;5113427;28;20076;-77
2022/07/20 04:45:09;;;;;;;34.03;18.50;;;;;;;;;;5109874;28;20012;-77
2022/07/20 04:47:35;;;;;;;43.25;18.42;;;;;;;;;;5093089;28;20454;-77
2022/07/20 04:50:01;;;;;;;54.58;19.27;;;;;;;;;;5093136;28;20089;-77
2022/07/20 04:52:27;;;;;;;50.95;18.60;;;;;;;;;;5092974;28;20032;-77
2022/07/20 04:54:53;;;;;;;40.53;19.35;;;;;;;;;;5092832;28;20027;-77
2022/07/20 04:57:19;;;;;;;39.38;17.88;;;;;;;;;;5093058;28;20040;-77
2022/07/20 04:59:45;;;;;;;31.45;18.17;;;;;;;;;;5092739;28;20046;-77
2022/07/20 05:02:11;;;;;;;30.42;16.95;;;;;;;;;;5092808;28;20039;-77
2022/07/20 05:04:37;;;;;;;34.47;16.77;;;;;;;;;;5092722;28;20028;-77
2022/07/20 05:07:03;;;;;;;33.50;16.67;;;;;;;;;;5092544;28;20104;-77
2022/07/20 05:09:29;;;;;;;27.88;15.52;;;;;;;;;;5092685;28;20024;-77
2022/07/20 05:11:55;;;;;;;33.47;16.85;;;;;;;;;;5092681;28;20024;-77
2022/07/20 05:14:21;;;;;;;35.10;15.80;;;;;;;;;;5092589;28;20082;-77
2022/07/20 05:16:47;;;;;;;30.63;16.83;;;;;;;;;;5092396;28;20082;-76
2022/07/20 05:19:13;;;;;;;38.67;16.02;;;;;;;;;;5111368;28;20055;-76
2022/07/20 05:21:39;;;;;;;29.33;15.63;;;;;;;;;;5112599;28;20354;-77
2022/07/20 05:24:06;;;;;;;32.65;17.20;;;;;;;;;;5112698;28;20470;-74
2022/07/20 05:26:32;;;;;;;30.90;16.85;;;;;;;;;;5112748;28;20095;-77
2022/07/20 05:28:58;;;;;;;33.80;17.98;;;;;;;;;;5112424;28;20055;-77
2022/07/20 05:31:24;;;;;;;38.13;19.40;;;;;;;;;;5112596;28;20035;-77
2022/07/20 05:33:50;;;;;;;36.42;21.75;;;;;;;;;;5112717;28;20027;-77
2022/07/20 05:36:16;;;;;;;38.00;20.00;;;;;;;;;;5112529;28;20015;-77
2022/07/20 05:38:42;;;;;;;44.42;21.15;;;;;;;;;;5112577;28;20511;-77
2022/07/20 05:41:08;;;;;;;41.50;21.13;;;;;;;;;;5112415;28;20022;-77
2022/07/20 05:43:34;;;;;;;38.67;21.15;;;;;;;;;;5112520;28;20051;-77
2022/07/20 05:46:00;;;;;;;44.60;22.20;;;;;;;;;;5112373;28;20024;-77
2022/07/20 05:48:26;;;;;;;41.15;22.00;;;;;;;;;;5112462;28;20035;-77
2022/07/20 05:50:52;;;;;;;41.55;22.35;;;;;;;;;;5110848;28;20020;-77
2022/07/20 05:53:18;;;;;;;42.75;23.15;;;;;;;;;;5111910;28;20028;-77
2022/07/20 05:55:46;;;;;;;38.88;22.75;;;;;;;;;;5112306;28;20031;-77
2022/07/20 05:58:12;;;;;;;45.25;22.90;;;;;;;;;;5112282;28;20663;-77
2022/07/20 06:00:38;;;;;;;41.70;24.08;;;;;;;;;;5112227;28;20027;-77
2022/07/20 06:03:05;;;;;;;39.20;23.92;;;;;;;;;;5112188;28;20019;-77
2022/07/20 06:05:31;;;;;;;42.35;23.90;;;;;;;;;;5112190;28;20019;-77
2022/07/20 06:08:01;;;;;;;39.53;24.67;;;;;;;;;;5110906;28;20470;-77
2022/07/20 06:10:30;;;;;;;46.35;25.45;;;;;;;;;;5106381;28;20103;-77
2022/07/20 06:12:57;;;;;;;42.65;24.10;;;;;;;;;;5092423;28;20030;-77
2022/07/20 06:15:25;;;;;;;40.53;24.23;;;;;;;;;;5090439;28;20028;-77
2022/07/20 06:17:51;;;;;;;44.65;24.55;;;;;;;;;;5099081;28;20030;-76
2022/07/20 06:20:17;;;;;;;38.25;24.15;;;;;;;;;;5111659;28;20102;-76
2022/07/20 06:22:44;;;;;;;45.10;23.58;;;;;;;;;;5112122;28;20056;-77
2022/07/20 06:25:11;;;;;;;42.70;24.30;;;;;;;;;;5111970;28;20020;-77
2022/07/20 06:27:38;;;;;;;43.75;24.83;;;;;;;;;;5112074;28;20024;-77
2022/07/20 06:30:05;;;;;;;47.30;24.15;;;;;;;;;;5111820;28;20055;-77
2022/07/20 06:32:31;;;;;;;40.83;23.52;;;;;;;;;;5111945;28;20425;-77
2022/07/20 06:34:57;;;;;;;38.53;23.95;;;;;;;;;;5111884;28;20031;-76
2022/07/20 06:37:23;;;;;;;43.63;23.45;;;;;;;;;;5111910;28;20472;-76
2022/07/20 06:39:49;;;;;;;43.78;24.67;;;;;;;;;;5111278;28;20372;-77
2022/07/20 06:42:16;;;;;;;41.83;23.67;;;;;;;;;;5111982;28;20051;-77
2022/07/20 06:44:42;;;;;;;44.05;23.92;;;;;;;;;;5111805;28;20107;-77
2022/07/20 06:47:08;;;;;;;38.20;22.83;;;;;;;;;;5110904;28;20051;-77
2022/07/20 06:49:35;;;;;;;39.30;22.40;;;;;;;;;;5109257;28;20042;-77
2022/07/20 06:52:01;;;;;;;44.13;21.63;;;;;;;;;;5092729;28;20569;-75
2022/07/20 06:54:27;;;;;;;39.58;21.38;;;;;;;;;;5111547;28;20111;-75
2022/07/20 06:56:54;;;;;;;36.45;21.02;;;;;;;;;;5111715;28;20059;-75
2022/07/20 06:59:20;;;;;;;39.17;20.20;;;;;;;;;;5111727;28;20032;-75
2022/07/20 07:01:46;;;;;;;43.67;22.10;;;;;;;;;;5111341;28;20034;-75
2022/07/20 07:04:12;;;;;;;41.65;21.23;;;;;;;;;;5111676;28;20020;-75
2022/07/20 07:06:38;;;;;;;34.00;20.20;;;;;;;;;;5114364;28;20038;-76
2022/07/20 07:09:04;;;;;;;40.95;21.17;;;;;;;;;;5115363;28;20031;-75
2022/07/20 07:11:30;;;;;;;45.35;21.05;;;;;;;;;;5114752;28;20050;-75
2022/07/20 07:13:56;;;;;;;40.25;20.45;;;;;;;;;;5115033;28;20070;-75
2022/07/20 07:16:24;;;;;;;42.60;18.77;;;;;;;;;;5096238;28;20035;-75
2022/07/20 07:18:50;;;;;;;40.10;19.33;;;;;;;;;;5113456;28;20020;-75
2022/07/20 07:21:16;;;;;;;33.90;17.42;;;;;;;;;;5114315;28;20031;-75
2022/07/20 07:23:42;;;;;;;35.10;18.27;;;;;;;;;;5114235;28;20016;-75
2022/07/20 07:26:08;;;;;;;35.33;17.95;;;;;;;;;;5114697;28;20095;-75
2022/07/20 07:28:34;;;;;;;31.67;17.90;;;;;;;;;;5114673;28;20050;-75
2022/07/20 07:31:00;;;;;;;32.40;15.73;;;;;;;;;;5114715;28;20474;-73
2022/07/20 07:33:26;;;;;;;26.80;15.05;;;;;;;;;;5114753;28;20032;-76
2022/07/20 07:35:53;;;;;;;33.70;13.48;;;;;;;;;;5111075;28;20051;-77
2022/07/20 07:38:19;;;;;;;23.63;12.10;;;;;;;;;;5114410;28;20036;-78
2022/07/20 07:40:45;;;;;;;25.15;12.70;;;;;;;;;;5114173;28;20110;-78
2022/07/20 07:43:11;;;;;;;30.95;12.80;;;;;;;;;;5114447;28;20063;-77
2022/07/20 07:45:38;;;;;;;25.35;11.88;;;;;;;;;;5106501;28;20474;-79
2022/07/20 07:48:05;;;;;;;25.92;11.45;;;;;;;;;;5093955;28;20431;-77
2022/07/20 07:50:32;;;;;;;22.52;11.52;;;;;;;;;;5094101;28;20036;-79
2022/07/20 07:52:58;;;;;;;25.20;12.10;;;;;;;;;;5094458;28;20429;-78
2022/07/20 07:55:24;;;;;;;22.45;11.48;;;;;;;;;;5093977;28;20028;-78
2022/07/20 07:57:50;;;;;;;21.15;12.18;;;;;;;;;;5093977;28;20099;-77
2022/07/20 08:00:16;;;;;;;21.60;11.75;;;;;;;;;;5093735;28;20358;-78
2022/07/20 08:02:42;;;;;;;23.25;11.63;;;;;;;;;;5110922;28;20059;-81
2022/07/20 08:05:08;;;;;;;24.25;10.13;;;;;;;;;;5096448;28;20055;-84
2022/07/20 08:07:36;;;;;;;22.40;11.10;;;;;;;;;;5114978;28;20031;-79
2022/07/20 08:10:02;;;;;;;21.27;10.30;;;;;;;;;;5114917;28;20030;-80
2022/07/20 08:12:28;;;;;;;26.45;10.60;;;;;;;;;;5115136;28;20461;-79
2022/07/20 08:14:54;;;;;;;21.80;9.80;;;;;;;;;;5114846;28;20024;-79
2022/07/20 08:17:20;;;;;;;25.77;10.40;;;;;;;;;;5110906;28;20388;-78
2022/07/20 08:19:46;;;;;;;20.13;10.13;;;;;;;;;;5099970;28;20248;-81
2022/07/20 08:22:12;;;;;;;28.35;10.02;;;;;;;;;;5099614;28;20028;-79
2022/07/20 08:24:38;;;;;;;26.33;10.27;;;;;;;;;;5093651;28;20028;-74
2022/07/20 08:27:04;;;;;;;25.63;10.18;;;;;;;;;;5097714;28;20155;-77
2022/07/20 08:29:30;;;;;;;23.02;9.45;;;;;;;;;;5112856;28;20044;-78
2022/07/20 08:31:56;;;;;;;23.48;10.20;;;;;;;;;;5112628;28;20019;-78
2022/07/20 08:34:22;;;;;;;16.52;9.73;;;;;;;;;;5113295;28;20461;-78
2022/07/20 08:36:48;;;;;;;20.20;9.98;;;;;;;;;;5113288;28;20045;-79
2022/07/20 08:39:14;;;;;;;21.58;10.73;;;;;;;;;;5113724;28;20106;-79
2022/07/20 08:41:41;;;;;;;20.58;10.50;;;;;;;;;;5113973;28;20031;-81
2022/07/20 08:44:07;;;;;;;20.73;10.23;;;;;;;;;;5113560;28;20083;-78
2022/07/20 08:46:34;;;;;;;25.98;11.30;;;;;;;;;;5112599;28;20427;-78
2022/07/20 08:49:00;;;;;;;17.33;9.32;;;;;;;;;;5113348;28;20115;-80
2022/07/20 08:51:26;;;;;;;17.13;8.82;;;;;;;;;;5113602;28;20092;-80
2022/07/20 08:53:53;;;;;;;22.00;9.43;;;;;;;;;;5113540;28;20020;-80
2022/07/20 08:56:19;;;;;;;17.52;9.15;;;;;;;;;;5114167;28;20165;-80
2022/07/20 08:58:45;;;;;;;18.83;9.07;;;;;;;;;;5113976;28;20100;-79
2022/07/20 09:01:15;;;;;;;20.65;9.13;;;;;;;;;;5112738;28;20462;-78
2022/07/20 09:03:41;;;;;;;19.15;8.90;;;;;;;;;;5112837;28;20470;-78
2022/07/20 09:06:07;;;;;;;21.48;8.60;;;;;;;;;;5112618;28;20040;-77
2022/07/20 09:08:34;;;;;;;23.00;8.50;;;;;;;;;;5110997;28;20047;-81
2022/07/20 09:11:01;;;;;;;18.38;8.52;;;;;;;;;;5114049;28;20393;-82
2022/07/20 09:13:29;;;;;;;16.98;7.80;;;;;;;;;;5114039;28;20089;-89
2022/07/20 09:15:56;;;;;;;14.70;8.25;;;;;;;;;;5095630;28;20377;-81
2022/07/20 09:18:28;;;;;;;14.98;8.45;;;;;;;;;;5111551;28;20026;-80
2022/07/20 09:20:56;;;;;;;15.93;7.40;;;;;;;;;;5113771;28;20028;-81
2022/07/20 09:23:29;;;;;;;16.90;7.50;;;;;;;;;;5114048;28;20047;-79
2022/07/20 09:26:00;;;;;;;14.38;7.25;;;;;;;;;;5113410;28;20042;-76
2022/07/20 09:28:38;;;;;;;12.80;6.95;;;;;;;;;;5111897;28;20123;-76
2022/07/20 09:31:04;;;;;;;17.77;7.22;;;;;;;;;;5110324;28;20485;-76
2022/07/20 09:33:31;;;;;;;16.05;8.73;;;;;;;;;;5112617;28;20088;-77
2022/07/20 09:35:58;;;;;;;13.55;7.82;;;;;;;;;;5112716;28;20031;-77
2022/07/20 09:38:34;;;;;;;13.32;7.50;;;;;;;;;;5112712;28;20039;-76
2022/07/20 09:41:01;;;;;;;17.02;7.55;;;;;;;;;;5111711;28;20050;-77
2022/07/20 09:43:31;;;;;;;14.02;7.38;;;;;;;;;;5111687;28;20061;-77
2022/07/20 09:46:09;;;;;;;13.13;6.78;;;;;;;;;;5112232;28;20023;-76
2022/07/20 09:48:39;;;;;;;18.85;7.72;;;;;;;;;;5111842;28;20493;-77
2022/07/20 09:51:16;;;;;;;20.92;8.15;;;;;;;;;;5111899;28;20035;-77
2022/07/20 09:53:42;;;;;;;16.95;7.43;;;;;;;;;;5112255;28;20055;-77
2022/07/20 09:56:09;;;;;;;19.48;7.22;;;;;;;;;;5112721;28;20085;-77
2022/07/20 09:58:35;;;;;;;13.57;7.20;;;;;;;;;;5113370;28;20030;-77
2022/07/20 10:01:01;;;;;;;14.57;7.40;;;;;;;;;;5112594;28;20038;-78
2022/07/20 10:03:28;;;;;;;16.00;6.82;;;;;;;;;;5112920;28;20065;-80
2022/07/20 10:05:55;;;;;;;17.67;7.43;;;;;;;;;;5112409;28;20075;-81
2022/07/20 10:08:21;;;;;;;14.15;7.43;;;;;;;;;;5112885;28;20028;-80
2022/07/20 10:10:47;;;;;;;18.38;7.63;;;;;;;;;;5113184;28;20032;-78
2022/07/20 10:13:13;;;;;;;11.68;6.45;;;;;;;;;;5112857;28;20420;-78
2022/07/20 10:15:52;;;;;;;14.25;6.72;;;;;;;;;;5111958;28;20870;-79
2022/07/20 10:18:19;;;;;;;16.52;7.30;;;;;;;;;;5102638;28;20043;-78
2022/07/20 10:20:45;;;;;;;16.67;7.88;;;;;;;;;;5107093;28;20039;-79
2022/07/20 10:23:14;;;;;;;12.27;7.45;;;;;;;;;;5112660;28;20069;-79
2022/07/20 10:25:41;;;;;;;17.08;7.20;;;;;;;;;;5112483;28;20016;-80
2022/07/20 10:28:27;;;;;;;12.60;6.88;;;;;;;;;;5112661;28;20366;-78
2022/07/20 10:30:54;;;;;;;19.80;7.07;;;;;;;;;;5107927;28;20023;-79
2022/07/20 10:33:21;;;;;;;16.13;7.10;;;;;;;;;;5111944;28;20019;-79
2022/07/20 10:35:48;;;;;;;15.05;7.10;;;;;;;;;;5111819;28;20015;-79
2022/07/20 10:38:20;;;;;;;11.60;6.68;;;;;;;;;;5112068;28;20452;-79
2022/07/20 10:44:09;;;;;;;11.98;6.00;;;;;;;;;;5114318;28;20031;-79
2022/07/20 10:46:36;;;;;;;12.65;6.45;;;;;;;;;;5115243;28;20028;-78
2022/07/20 10:49:02;;;;;;;11.18;6.05;;;;;;;;;;5115063;28;20442;-78
2022/07/20 10:51:28;;;;;;;9.75;5.80;;;;;;;;;;5115004;28;20034;-78
2022/07/20 10:53:54;;;;;;;13.20;5.38;;;;;;;;;;5115086;28;20023;-78
2022/07/20 10:56:30;;;;;;;12.75;5.78;;;;;;;;;;5114750;28;20039;-78
2022/07/20 10:59:00;;;;;;;10.80;5.15;;;;;;;;;;5114897;28;20073;-79
2022/07/20 11:01:26;;;;;;;8.77;4.95;;;;;;;;;;5109184;28;20457;-78
2022/07/20 11:03:52;;;;;;;7.72;4.43;;;;;;;;;;5114780;28;20024;-78
2022/07/20 11:06:23;;;;;;;6.22;3.80;;;;;;;;;;5114769;28;20011;-78
2022/07/20 11:08:50;;;;;;;9.90;3.60;;;;;;;;;;5112640;28;20022;-78
2022/07/20 11:11:17;;;;;;;8.13;3.85;;;;;;;;;;5114615;28;20024;-78
2022/07/20 11:13:46;;;;;;;4.95;3.40;;;;;;;;;;5113496;28;20020;-78
2022/07/20 11:16:12;;;;;;;5.88;3.67;;;;;;;;;;5114402;28;20030;-78
2022/07/20 11:18:38;;;;;;;7.25;3.65;;;;;;;;;;5111724;28;20028;-78
2022/07/20 11:21:08;;;;;;;12.52;3.45;;;;;;;;;;5114076;28;20023;-79
2022/07/20 11:23:41;;;;;;;6.78;3.10;;;;;;;;;;5114471;28;20019;-78
2022/07/20 11:26:08;;;;;;;48.08;5.55;;;;;;;;;;5114768;28;20027;-78
2022/07/20 11:28:35;;;;;;;10.77;4.13;;;;;;;;;;5115070;28;20046;-78
2022/07/20 11:31:02;;;;;;;12.10;4.07;;;;;;;;;;5114376;28;20054;-78
2022/07/20 11:33:42;;;;;;;8.05;3.58;;;;;;;;;;5114666;28;20030;-76
2022/07/20 11:36:09;;;;;;;10.02;3.75;;;;;;;;;;5114338;28;20028;-76
2022/07/20 11:38:35;;;;;;;9.52;3.80;;;;;;;;;;5114324;28;20108;-76
2022/07/20 11:41:05;;;;;;;10.95;3.50;;;;;;;;;;5112523;28;20058;-76
2022/07/20 11:43:32;;;;;;;8.68;3.90;;;;;;;;;;5114171;28;20024;-77
2022/07/20 11:46:14;;;;;;;7.03;3.75;;;;;;;;;;5112120;28;20068;-77
2022/07/20 11:48:41;;;;;;;10.07;3.60;;;;;;;;;;5112747;28;20103;-77
2022/07/20 11:51:07;;;;;;;9.40;4.10;;;;;;;;;;5112387;28;20107;-77
2022/07/20 11:53:35;;;;;;;9.20;3.53;;;;;;;;;;5094798;28;20035;-76
2022/07/20 11:56:02;;;;;;;12.80;3.40;;;;;;;;;;5114203;28;20444;-77
2022/07/20 11:58:35;;;;;;;5.68;3.58;;;;;;;;;;5113350;28;20030;-77
2022/07/20 12:01:06;;;;;;;9.70;3.40;;;;;;;;;;5113703;28;20042;-77
2022/07/20 12:03:34;;;;;;;10.07;3.67;;;;;;;;;;5114209;28;20035;-77
2022/07/20 12:06:01;;;;;;;7.30;3.40;;;;;;;;;;5113900;28;20027;-76
2022/07/20 12:08:27;;;;;;;7.25;3.75;;;;;;;;;;5114047;28;20035;-77
2022/07/20 12:10:54;;;;;;;6.03;3.65;;;;;;;;;;5114015;28;20028;-77
2022/07/20 12:13:21;;;;;;;6.70;3.50;;;;;;;;;;5114066;28;20426;-77
2022/07/20 12:15:58;;;;;;;9.65;3.63;;;;;;;;;;5113714;28;20028;-77
2022/07/20 12:18:34;;;;;;;10.18;3.88;;;;;;;;;;5102034;28;20036;-77
2022/07/20 12:21:01;;;;;;;16.25;4.15;;;;;;;;;;5093205;28;20063;-77
2022/07/20 12:23:27;;;;;;;8.13;4.10;;;;;;;;;;5093693;28;20024;-77
2022/07/20 12:25:53;;;;;;;8.63;4.38;;;;;;;;;;5093293;28;20089;-77
2022/07/20 12:28:33;;;;;;;10.05;3.85;;;;;;;;;;5093293;28;20119;-77
2022/07/20 12:31:09;;;;;;;7.80;4.40;;;;;;;;;;5093168;28;20108;-77
2022/07/20 12:33:35;;;;;;;8.90;4.45;;;;;;;;;;5093163;28;20457;-77
2022/07/20 12:36:07;;;;;;;7.22;4.05;;;;;;;;;;5093036;28;20043;-77
2022/07/20 12:38:35;;;;;;;9.43;4.03;;;;;;;;;;5093145;28;20186;-77
2022/07/20 12:41:11;;;;;;;8.90;4.30;;;;;;;;;;5092872;28;20020;-77
2022/07/20 12:43:41;;;;;;;11.63;3.92;;;;;;;;;;5093015;28;20038;-77
2022/07/20 12:46:10;;;;;;;6.38;3.92;;;;;;;;;;5096034;28;20027;-77
2022/07/20 12:48:37;;;;;;;6.18;3.70;;;;;;;;;;5113572;28;20011;-76
2022/07/20 12:51:03;;;;;;;14.05;3.95;;;;;;;;;;5113393;28;20031;-77
2022/07/20 12:53:29;;;;;;;11.05;4.22;;;;;;;;;;5113390;28;20538;-77
2022/07/20 12:55:55;;;;;;;10.10;3.85;;;;;;;;;;5113240;28;20055;-77
2022/07/20 12:58:21;;;;;;;9.07;3.58;;;;;;;;;;5113285;28;20034;-77
2022/07/20 13:00:47;;;;;;;9.40;3.40;;;;;;;;;;5113167;28;20391;-77
2022/07/20 13:03:13;;;;;;;10.27;3.33;;;;;;;;;;5113254;28;20107;-77
2022/07/20 13:05:40;;;;;;;8.48;3.60;;;;;;;;;;5113030;28;20141;-77
2022/07/20 13:08:06;;;;;;;8.60;3.42;;;;;;;;;;5113095;28;20486;-77
2022/07/20 13:10:33;;;;;;;6.63;3.00;;;;;;;;;;5112784;28;20030;-77
2022/07/20 13:12:58;;;;;;;10.98;3.88;;;;;;;;;;5112943;28;20106;-77
2022/07/20 13:15:25;;;;;;;9.07;3.35;;;;;;;;;;5112791;28;20177;-77
2022/07/20 13:17:51;;;;;;;8.85;3.80;;;;;;;;;;5105696;28;20024;-77
2022/07/20 13:20:17;;;;;;;8.27;3.78;;;;;;;;;;5092174;28;20739;-77
2022/07/20 13:22:43;;;;;;;7.43;3.67;;;;;;;;;;5092410;28;20035;-77
2022/07/20 13:25:09;;;;;;;8.60;3.38;;;;;;;;;;5092220;28;20028;-77
2022/07/20 13:27:36;;;;;;;12.75;3.90;;;;;;;;;;5092342;28;20062;-77
2022/07/20 13:30:02;;;;;;;7.28;3.92;;;;;;;;;;5092024;28;20048;-76
2022/07/20 13:32:29;;;;;;;8.30;3.30;;;;;;;;;;5092579;28;20459;-77
2022/07/20 13:34:55;;;;;;;7.47;3.47;;;;;;;;;;5092185;28;20047;-77
2022/07/20 13:37:21;;;;;;;10.65;3.63;;;;;;;;;;5092117;28;20442;-76
2022/07/20 13:39:47;;;;;;;6.70;3.60;;;;;;;;;;5092131;28;20032;-77
2022/07/20 13:42:13;;;;;;;12.20;3.65;;;;;;;;;;5092135;28;20097;-76
2022/07/20 13:44:39;;;;;;;8.30;3.60;;;;;;;;;;5092009;28;20043;-76
2022/07/20 13:47:07;;;;;;;8.23;3.42;;;;;;;;;;5111766;28;20042;-77
2022/07/20 13:49:33;;;;;;;6.93;3.65;;;;;;;;;;5112472;28;20462;-77
2022/07/20 13:51:59;;;;;;;6.18;3.38;;;;;;;;;;5112209;28;20035;-77
2022/07/20 13:54:25;;;;;;;5.28;3.58;;;;;;;;;;5112376;28;20495;-76
2022/07/20 13:56:51;;;;;;;6.68;4.00;;;;;;;;;;5112315;28;20099;-76
2022/07/20 13:59:17;;;;;;;11.45;3.83;;;;;;;;;;5093979;28;20115;-76
2022/07/20 14:01:43;;;;;;;12.68;4.30;;;;;;;;;;5112066;28;20027;-77
2022/07/20 14:04:10;;;;;;;6.57;3.38;;;;;;;;;;5112309;28;20027;-77
2022/07/20 14:06:37;;;;;;;7.85;4.03;;;;;;;;;;5111976;28;20024;-77
2022/07/20 14:09:03;;;;;;;9.18;3.78;;;;;;;;;;5112046;28;20024;-77
2022/07/20 14:11:29;;;;;;;7.05;3.80;;;;;;;;;;5112063;28;20103;-77
2022/07/20 14:13:55;;;;;;;10.35;3.63;;;;;;;;;;5112742;28;20080;-77
2022/07/20 14:16:21;;;;;;;9.70;4.15;;;;;;;;;;5116242;28;20057;-77
2022/07/20 14:18:47;;;;;;;9.05;3.97;;;;;;;;;;5116184;28;20366;-77
2022/07/20 14:21:15;;;;;;;7.63;3.80;;;;;;;;;;5115900;28;20031;-76
2022/07/20 14:23:41;;;;;;;9.73;4.70;;;;;;;;;;5116243;28;20441;-77
2022/07/20 14:26:07;;;;;;;8.57;4.47;;;;;;;;;;5116115;28;20473;-77
2022/07/20 14:28:33;;;;;;;9.80;4.13;;;;;;;;;;5115977;28;20092;-77
2022/07/20 14:30:59;;;;;;;6.82;4.18;;;;;;;;;;5115744;28;20031;-77
2022/07/20 14:33:25;;;;;;;13.90;4.78;;;;;;;;;;5116022;28;20031;-77
2022/07/20 14:35:51;;;;;;;10.93;4.65;;;;;;;;;;5114537;28;20426;-77